createdAt,value
2018-03-03T00:01:05.466Z,-2.37
2018-03-03T00:03:36.334Z,-2.36
2018-03-03T00:06:07.198Z,-2.42
2018-03-03T00:08:38.068Z,-2.43
2018-03-03T00:11:10.058Z,-2.41
2018-03-03T00:13:40.930Z,-2.43
2018-03-03T00:16:11.842Z,-2.43
2018-03-03T00:18:42.713Z,-2.43
2018-03-03T00:21:13.622Z,-2.48
2018-03-03T00:23:44.504Z,-2.48
2018-03-03T00:26:15.395Z,-2.55
2018-03-03T00:28:46.187Z,-2.53
2018-03-03T00:31:17.096Z,-2.59
2018-03-03T00:33:47.946Z,-2.64
2018-03-03T00:36:18.854Z,-2.62
2018-03-03T00:38:49.708Z,-2.55
2018-03-03T00:41:20.551Z,-2.53
2018-03-03T00:43:51.380Z,-2.52
2018-03-03T00:46:22.224Z,-2.51
2018-03-03T00:48:53.055Z,-2.61
2018-03-03T00:51:23.954Z,-2.51
2018-03-03T00:53:54.793Z,-2.60
2018-03-03T00:56:27.679Z,-2.55
2018-03-03T00:58:58.553Z,-2.49
2018-03-03T01:01:29.433Z,-2.56
2018-03-03T01:04:00.271Z,-2.56
2018-03-03T01:06:31.117Z,-2.53
2018-03-03T01:09:02.010Z,-2.60
2018-03-03T01:11:32.898Z,-2.63
2018-03-03T01:14:03.763Z,-2.56
2018-03-03T01:16:34.618Z,-2.53
2018-03-03T01:19:05.436Z,-2.55
2018-03-03T01:21:36.267Z,-2.47
2018-03-03T01:24:07.086Z,-2.51
2018-03-03T01:26:37.938Z,-2.51
2018-03-03T01:29:08.762Z,-2.51
2018-03-03T01:31:41.684Z,-2.45
2018-03-03T01:34:12.515Z,-2.37
2018-03-03T01:36:43.367Z,-2.40
2018-03-03T01:39:14.246Z,-2.43
2018-03-03T01:41:45.130Z,-2.55
2018-03-03T01:44:16.051Z,-2.49
2018-03-03T01:46:46.966Z,-2.54
2018-03-03T01:49:17.829Z,-2.44
2018-03-03T01:51:48.670Z,-2.47
2018-03-03T01:54:19.521Z,-2.47
2018-03-03T01:56:50.358Z,-2.51
2018-03-03T01:59:21.238Z,-2.62
2018-03-03T02:01:52.111Z,-2.48
2018-03-03T02:04:22.965Z,-2.53
2018-03-03T02:06:53.846Z,-2.47
2018-03-03T02:09:24.716Z,-2.57
2018-03-03T02:11:55.561Z,-2.58
2018-03-03T02:14:26.400Z,-2.62
2018-03-03T02:16:57.468Z,-2.61
2018-03-03T02:19:28.290Z,-2.71
2018-03-03T02:21:59.178Z,-2.57
2018-03-03T02:24:30.009Z,-2.67
2018-03-03T02:27:00.886Z,-2.62
2018-03-03T02:29:31.737Z,-2.55
2018-03-03T02:32:02.586Z,-2.56
2018-03-03T02:34:33.412Z,-2.50
2018-03-03T02:37:04.336Z,-2.58
2018-03-03T02:39:35.198Z,-2.62
2018-03-03T02:42:06.066Z,-2.68
2018-03-03T02:44:36.929Z,-2.65
2018-03-03T02:47:07.824Z,-2.59
2018-03-03T02:49:38.703Z,-2.58
2018-03-03T02:52:09.549Z,-2.61
2018-03-03T02:54:40.399Z,-2.58
2018-03-03T02:57:11.286Z,-2.48
2018-03-03T02:59:42.126Z,-2.47
2018-03-03T03:02:12.988Z,-2.60
2018-03-03T03:04:43.847Z,-2.59
2018-03-03T03:07:14.667Z,-2.65
2018-03-03T03:09:45.534Z,-2.72
2018-03-03T03:12:16.443Z,-2.66
2018-03-03T03:14:47.304Z,-2.68
2018-03-03T03:17:18.149Z,-2.63
2018-03-03T03:19:49.022Z,-2.62
2018-03-03T03:22:19.904Z,-2.56
2018-03-03T03:24:50.741Z,-2.56
2018-03-03T03:27:21.607Z,-2.55
2018-03-03T03:29:52.464Z,-2.53
2018-03-03T03:32:23.319Z,-2.55
2018-03-03T03:34:54.168Z,-2.47
2018-03-03T03:37:33.179Z,-2.49
2018-03-03T03:40:04.147Z,-2.57
2018-03-03T03:42:34.997Z,-2.63
2018-03-03T03:45:05.877Z,-2.67
2018-03-03T03:47:36.768Z,-2.77
2018-03-03T03:50:07.592Z,-2.73
2018-03-03T03:52:38.423Z,-2.71
2018-03-03T03:55:09.432Z,-2.65
2018-03-03T03:57:40.300Z,-2.67
2018-03-03T04:00:11.133Z,-2.70
2018-03-03T04:02:42.036Z,-2.64
2018-03-03T04:05:12.886Z,-2.72
2018-03-03T04:07:43.744Z,-2.78
2018-03-03T04:10:14.574Z,-2.76
2018-03-03T04:12:45.464Z,-2.71
2018-03-03T04:15:16.354Z,-2.72
2018-03-03T04:17:47.227Z,-2.77
2018-03-03T04:20:18.066Z,-2.82
2018-03-03T04:22:48.973Z,-2.77
2018-03-03T04:25:19.794Z,-2.75
2018-03-03T04:27:52.700Z,-2.71
2018-03-03T04:30:23.573Z,-2.73
2018-03-03T04:32:54.425Z,-2.69
2018-03-03T04:35:25.308Z,-2.64
2018-03-03T04:37:56.139Z,-2.87
2018-03-03T04:40:26.973Z,-2.71
2018-03-03T04:42:57.830Z,-2.66
2018-03-03T04:45:28.619Z,-2.70
2018-03-03T04:47:59.488Z,-2.66
2018-03-03T04:50:34.274Z,-2.71
2018-03-03T04:53:05.150Z,-2.68
2018-03-03T04:55:35.980Z,-2.71
2018-03-03T04:58:06.817Z,-2.76
2018-03-03T05:00:41.572Z,-2.74
2018-03-03T05:06:25.002Z,-2.80
2018-03-03T05:08:55.865Z,-2.68
2018-03-03T05:11:26.704Z,-2.67
2018-03-03T05:17:14.009Z,-2.70
2018-03-03T05:19:50.968Z,-2.75
2018-03-03T05:22:27.811Z,-2.81
2018-03-03T05:28:24.937Z,-2.76
2018-03-03T05:31:01.930Z,-2.81
2018-03-03T05:33:38.763Z,-2.81
2018-03-03T05:36:20.765Z,-2.72
2018-03-03T05:38:57.721Z,-2.81
2018-03-03T05:41:34.522Z,-2.86
2018-03-03T05:44:11.543Z,-2.82
2018-03-03T05:49:51.033Z,-2.81
2018-03-03T05:55:48.311Z,-2.70
2018-03-03T06:01:28.900Z,-2.71
2018-03-03T06:04:04.722Z,-2.70
2018-03-03T06:09:42.939Z,-2.70
2018-03-03T06:12:13.801Z,-2.74
2018-03-03T06:14:44.693Z,-2.64
2018-03-03T06:17:15.543Z,-2.71
2018-03-03T06:19:46.397Z,-2.74
2018-03-03T06:22:17.250Z,-2.64
2018-03-03T06:24:48.082Z,-2.63
2018-03-03T06:27:18.943Z,-2.66
2018-03-03T06:29:49.753Z,-2.49
2018-03-03T06:32:20.585Z,-2.50
2018-03-03T06:34:51.389Z,-2.55
2018-03-03T06:37:22.220Z,-2.45
2018-03-03T06:39:53.088Z,-2.41
2018-03-03T06:42:23.909Z,-2.25
2018-03-03T06:44:54.751Z,-2.22
2018-03-03T06:47:25.595Z,-2.35
2018-03-03T06:49:56.417Z,-2.28
2018-03-03T06:52:27.247Z,-2.16
2018-03-03T06:54:58.119Z,-1.98
2018-03-03T06:57:28.946Z,-1.95
2018-03-03T06:59:59.785Z,-1.94
2018-03-03T07:02:30.587Z,-1.99
2018-03-03T07:05:01.405Z,-1.99
2018-03-03T07:07:32.249Z,-1.95
2018-03-03T07:10:03.105Z,-2.10
2018-03-03T07:12:33.918Z,-1.94
2018-03-03T07:15:11.799Z,-1.92
2018-03-03T07:17:42.616Z,-1.77
2018-03-03T07:20:13.445Z,-1.81
2018-03-03T07:22:44.266Z,-1.54
2018-03-03T07:25:15.142Z,-1.48
2018-03-03T07:27:45.938Z,-1.51
2018-03-03T07:30:16.817Z,-1.59
2018-03-03T07:32:47.655Z,-1.30
2018-03-03T07:35:18.490Z,-1.43
2018-03-03T07:37:49.300Z,-1.43
2018-03-03T07:40:20.205Z,-1.28
2018-03-03T07:42:51.037Z,-1.26
2018-03-03T07:45:21.993Z,-1.33
2018-03-03T07:47:52.877Z,-1.16
2018-03-03T07:50:23.739Z,-1.31
2018-03-03T07:52:54.578Z,-1.27
2018-03-03T07:55:25.420Z,-1.18
2018-03-03T07:58:03.007Z,-1.47
2018-03-03T08:00:33.834Z,-1.00
2018-03-03T08:03:04.698Z,-0.79
2018-03-03T08:05:35.535Z,-0.46
2018-03-03T08:08:06.405Z,-0.55
2018-03-03T08:10:37.278Z,-0.82
2018-03-03T08:13:08.172Z,-0.67
2018-03-03T08:15:39.012Z,-0.39
2018-03-03T08:18:09.877Z,-0.24
2018-03-03T08:20:41.735Z,0.14
2018-03-03T08:23:12.632Z,-0.21
2018-03-03T08:25:44.523Z,-0.21
2018-03-03T08:28:15.342Z,-0.34
2018-03-03T08:30:46.161Z,0.10
2018-03-03T08:33:23.976Z,-0.03
2018-03-03T08:35:54.840Z,-0.10
2018-03-03T08:38:25.774Z,0.06
2018-03-03T08:40:56.578Z,0.14
2018-03-03T08:43:27.456Z,0.51
2018-03-03T08:45:58.294Z,0.80
2018-03-03T08:48:29.128Z,0.88
2018-03-03T08:51:02.056Z,0.60
2018-03-03T08:53:32.918Z,0.93
2018-03-03T08:56:03.722Z,0.88
2018-03-03T08:58:34.598Z,1.31
2018-03-03T09:01:05.464Z,1.01
2018-03-03T09:03:36.303Z,1.00
2018-03-03T09:06:07.133Z,0.82
2018-03-03T09:08:37.925Z,1.70
2018-03-03T09:11:08.751Z,1.29
2018-03-03T09:13:39.618Z,1.98
2018-03-03T09:16:10.449Z,1.85
2018-03-03T09:18:41.357Z,2.13
2018-03-03T09:21:12.220Z,2.45
2018-03-03T09:23:43.039Z,2.30
2018-03-03T09:26:13.883Z,1.99
2018-03-03T09:28:44.717Z,2.50
2018-03-03T09:31:15.532Z,3.11
2018-03-03T09:33:46.390Z,3.22
2018-03-03T09:36:17.240Z,2.72
2018-03-03T09:38:48.084Z,3.07
2018-03-03T09:41:19.027Z,3.18
2018-03-03T09:43:49.886Z,3.07
2018-03-03T09:46:20.716Z,3.84
2018-03-03T09:48:52.644Z,3.85
2018-03-03T09:51:23.488Z,3.27
2018-03-03T09:53:54.286Z,3.42
2018-03-03T09:56:25.105Z,3.10
2018-03-03T10:01:26.631Z,3.57
2018-03-03T10:03:57.426Z,4.26
2018-03-03T10:06:29.310Z,3.15
2018-03-03T10:09:00.190Z,3.21
2018-03-03T10:11:31.026Z,3.05
2018-03-03T10:14:01.873Z,2.91
2018-03-03T10:16:32.709Z,2.74
2018-03-03T10:19:03.746Z,2.51
2018-03-03T10:21:34.684Z,2.67
2018-03-03T10:24:05.633Z,2.37
2018-03-03T10:26:36.568Z,2.89
2018-03-03T10:29:07.381Z,2.70
2018-03-03T10:31:38.185Z,2.15
2018-03-03T10:34:09.098Z,1.49
2018-03-03T10:36:39.936Z,1.07
2018-03-03T10:39:11.025Z,1.19
2018-03-03T10:41:41.841Z,1.46
2018-03-03T10:44:12.661Z,1.52
2018-03-03T10:46:43.663Z,1.77
2018-03-03T10:49:14.524Z,2.05
2018-03-03T10:51:45.368Z,1.57
2018-03-03T10:54:16.230Z,1.52
2018-03-03T10:56:47.044Z,1.99
2018-03-03T10:59:17.884Z,2.60
2018-03-03T11:01:48.701Z,3.42
2018-03-03T11:04:19.520Z,3.47
2018-03-03T11:06:50.305Z,3.27
2018-03-03T11:09:21.094Z,3.47
2018-03-03T11:11:51.885Z,3.52
2018-03-03T11:14:22.756Z,3.65
2018-03-03T11:16:53.592Z,3.19
2018-03-03T11:19:24.393Z,3.27
2018-03-03T11:21:55.226Z,3.42
2018-03-03T11:24:26.069Z,3.07
2018-03-03T11:26:56.925Z,3.27
2018-03-03T11:29:27.772Z,3.26
2018-03-03T11:31:58.606Z,3.38
2018-03-03T11:34:29.404Z,3.70
2018-03-03T11:37:00.269Z,3.64
2018-03-03T11:39:31.097Z,3.32
2018-03-03T11:42:01.988Z,3.41
2018-03-03T11:44:32.831Z,3.89
2018-03-03T11:47:03.658Z,3.86
2018-03-03T11:49:34.471Z,3.95
2018-03-03T11:52:05.316Z,3.59
2018-03-03T11:54:36.120Z,3.38
2018-03-03T11:57:06.970Z,3.52
2018-03-03T11:59:37.809Z,4.18
2018-03-03T12:02:08.652Z,4.41
2018-03-03T12:04:39.462Z,4.71
2018-03-03T12:07:10.338Z,5.31
2018-03-03T12:09:41.185Z,5.30
2018-03-03T12:12:12.083Z,5.50
2018-03-03T12:14:42.973Z,6.03
2018-03-03T12:17:13.857Z,6.17
2018-03-03T12:19:44.747Z,6.68
2018-03-03T12:22:15.675Z,7.15
2018-03-03T12:24:46.487Z,7.50
2018-03-03T12:27:17.357Z,7.34
2018-03-03T12:29:48.219Z,7.72
2018-03-03T12:32:19.314Z,6.47
2018-03-03T12:34:51.120Z,7.18
2018-03-03T12:37:22.231Z,7.09
2018-03-03T12:39:53.043Z,6.62
2018-03-03T12:42:24.036Z,6.61
2018-03-03T12:44:54.877Z,5.98
2018-03-03T12:47:25.804Z,6.00
2018-03-03T12:49:56.766Z,5.70
2018-03-03T12:52:27.613Z,5.71
2018-03-03T12:54:58.509Z,5.65
2018-03-03T12:57:29.367Z,5.33
2018-03-03T13:00:00.277Z,5.16
2018-03-03T13:02:31.171Z,4.75
2018-03-03T13:05:02.018Z,4.38
2018-03-03T13:07:32.863Z,4.10
2018-03-03T13:10:03.729Z,4.09
2018-03-03T13:12:34.554Z,3.96
2018-03-03T13:15:05.377Z,4.32
2018-03-03T13:17:36.270Z,4.78
2018-03-03T13:20:07.077Z,5.29
2018-03-03T13:22:37.898Z,4.61
2018-03-03T13:25:08.708Z,4.67
2018-03-03T13:27:39.545Z,4.72
2018-03-03T13:30:10.357Z,5.11
2018-03-03T13:32:41.189Z,5.51
2018-03-03T13:35:11.990Z,5.83
2018-03-03T13:37:42.861Z,6.07
2018-03-03T13:40:13.718Z,6.14
2018-03-03T13:42:44.579Z,6.60
2018-03-03T13:45:15.413Z,6.49
2018-03-03T13:47:46.228Z,6.86
2018-03-03T13:50:17.086Z,7.32
2018-03-03T13:52:48.025Z,7.72
2018-03-03T13:55:18.886Z,8.55
2018-03-03T13:57:49.737Z,9.90
2018-03-03T14:00:20.632Z,11.11
2018-03-03T14:02:51.492Z,11.18
2018-03-03T14:05:22.411Z,11.72
2018-03-03T14:07:53.274Z,12.96
2018-03-03T14:10:24.156Z,12.27
2018-03-03T14:12:55.126Z,11.39
2018-03-03T14:15:25.974Z,9.20
2018-03-03T14:17:56.889Z,9.36
2018-03-03T14:20:27.757Z,8.56
2018-03-03T14:22:58.582Z,8.15
2018-03-03T14:25:29.430Z,8.31
2018-03-03T14:28:00.247Z,7.93
2018-03-03T14:30:31.125Z,7.69
2018-03-03T14:33:01.935Z,7.71
2018-03-03T14:35:32.856Z,7.94
2018-03-03T14:38:03.763Z,7.67
2018-03-03T14:40:34.589Z,8.07
2018-03-03T14:43:05.491Z,8.38
2018-03-03T14:45:36.444Z,8.40
2018-03-03T14:48:07.243Z,7.24
2018-03-03T14:50:38.087Z,7.45
2018-03-03T14:53:08.923Z,7.27
2018-03-03T14:55:39.750Z,7.13
2018-03-03T14:58:10.589Z,6.62
2018-03-03T15:00:41.425Z,6.80
2018-03-03T15:03:12.275Z,6.05
2018-03-03T15:05:43.094Z,5.73
2018-03-03T15:08:13.901Z,5.90
2018-03-03T15:10:44.723Z,5.79
2018-03-03T15:13:15.512Z,5.45
2018-03-03T15:15:46.361Z,5.34
2018-03-03T15:18:17.210Z,5.02
2018-03-03T15:20:48.117Z,4.95
2018-03-03T15:23:18.966Z,4.90
2018-03-03T15:25:49.827Z,4.58
2018-03-03T15:28:20.634Z,4.56
2018-03-03T15:30:51.474Z,4.55
2018-03-03T15:33:22.270Z,4.49
2018-03-03T15:35:53.098Z,4.47
2018-03-03T15:38:23.885Z,4.50
2018-03-03T15:40:54.719Z,4.49
2018-03-03T15:43:25.527Z,4.38
2018-03-03T15:45:56.465Z,4.26
2018-03-03T15:48:27.345Z,4.23
2018-03-03T15:50:58.185Z,4.11
2018-03-03T15:53:28.981Z,4.06
2018-03-03T15:55:59.800Z,3.97
2018-03-03T15:58:30.615Z,3.93
2018-03-03T16:01:01.447Z,3.83
2018-03-03T16:03:32.252Z,3.81
2018-03-03T16:06:03.100Z,3.85
2018-03-03T16:08:33.916Z,3.76
2018-03-03T16:11:04.752Z,3.70
2018-03-03T16:13:35.530Z,3.58
2018-03-03T16:16:06.403Z,3.40
2018-03-03T16:18:37.234Z,3.44
2018-03-03T16:21:09.149Z,3.26
2018-03-03T16:23:40.010Z,3.16
2018-03-03T16:26:10.887Z,3.18
2018-03-03T16:28:41.776Z,3.11
2018-03-03T16:31:13.694Z,2.99
2018-03-03T16:33:44.513Z,2.83
2018-03-03T16:36:15.356Z,2.60
2018-03-03T16:38:46.179Z,2.41
2018-03-03T16:41:17.034Z,2.32
2018-03-03T16:43:47.871Z,2.22
2018-03-03T16:46:18.706Z,2.38
2018-03-03T16:48:49.549Z,2.42
2018-03-03T16:51:20.375Z,2.17
2018-03-03T16:53:51.174Z,1.93
2018-03-03T16:56:22.043Z,1.86
2018-03-03T16:58:52.856Z,1.93
2018-03-03T17:01:23.717Z,2.04
2018-03-03T17:03:54.556Z,2.14
2018-03-03T17:06:25.450Z,2.07
2018-03-03T17:08:56.284Z,1.86
2018-03-03T17:11:27.113Z,1.79
2018-03-03T17:13:59.026Z,1.56
2018-03-03T17:16:29.862Z,1.53
2018-03-03T17:19:00.799Z,1.62
2018-03-03T17:21:31.638Z,1.65
2018-03-03T17:24:02.491Z,1.66
2018-03-03T17:26:33.326Z,1.60
2018-03-03T17:29:04.118Z,1.55
2018-03-03T17:31:34.991Z,1.47
2018-03-03T17:34:05.774Z,1.17
2018-03-03T17:36:36.565Z,1.04
2018-03-03T17:39:07.491Z,0.99
2018-03-03T17:41:38.327Z,1.01
2018-03-03T17:44:09.141Z,0.90
2018-03-03T17:46:39.998Z,0.83
2018-03-03T17:49:10.797Z,0.77
2018-03-03T17:51:42.111Z,0.79
2018-03-03T17:54:12.967Z,0.78
2018-03-03T17:56:43.784Z,0.73
2018-03-03T17:59:16.647Z,0.65
2018-03-03T18:01:47.471Z,0.41
2018-03-03T18:04:18.295Z,0.22
2018-03-03T18:06:49.101Z,0.24
2018-03-03T18:09:19.892Z,0.21
2018-03-03T18:11:59.711Z,0.17
2018-03-03T18:14:30.572Z,0.05
2018-03-03T18:17:01.406Z,-0.06
2018-03-03T18:19:33.123Z,0.22
2018-03-03T18:22:03.976Z,0.26
2018-03-03T18:24:34.894Z,0.18
2018-03-03T18:27:05.800Z,0.19
2018-03-03T18:29:36.721Z,0.18
2018-03-03T18:32:07.558Z,-0.04
2018-03-03T18:34:38.483Z,0.05
2018-03-03T18:37:09.289Z,0.20
2018-03-03T18:39:40.138Z,0.14
2018-03-03T18:42:10.964Z,0.13
2018-03-03T18:44:42.257Z,-0.06
2018-03-03T18:47:13.163Z,-0.17
2018-03-03T18:49:44.021Z,-0.26
2018-03-03T18:52:14.902Z,-0.38
2018-03-03T18:54:45.797Z,-0.31
2018-03-03T18:57:16.728Z,-0.47
2018-03-03T18:59:47.634Z,-0.42
2018-03-03T19:02:18.642Z,-0.44
2018-03-03T19:04:49.479Z,-0.56
2018-03-03T19:07:20.326Z,-0.67
2018-03-03T19:09:51.202Z,-0.61
2018-03-03T19:12:22.038Z,-0.68
2018-03-03T19:14:52.899Z,-0.76
2018-03-03T19:17:23.735Z,-0.83
2018-03-03T19:19:54.615Z,-0.80
2018-03-03T19:22:25.502Z,-0.69
2018-03-03T19:24:56.356Z,-0.72
2018-03-03T19:27:27.267Z,-0.92
2018-03-03T19:29:58.096Z,-0.94
2018-03-03T19:32:28.909Z,-0.83
2018-03-03T19:34:59.751Z,-0.93
2018-03-03T19:37:30.626Z,-1.07
2018-03-03T19:40:01.475Z,-1.26
2018-03-03T19:42:32.375Z,-1.38
2018-03-03T19:45:03.323Z,-1.43
2018-03-03T19:47:34.262Z,-1.45
2018-03-03T19:50:05.108Z,-1.47
2018-03-03T19:52:35.954Z,-1.57
2018-03-03T19:55:06.802Z,-1.63
2018-03-03T19:57:37.620Z,-1.70
2018-03-03T20:00:08.449Z,-1.76
2018-03-03T20:02:39.300Z,-1.83
2018-03-03T20:05:10.139Z,-1.82
2018-03-03T20:07:41.047Z,-1.89
2018-03-03T20:10:11.914Z,-1.83
2018-03-03T20:12:42.820Z,-1.87
2018-03-03T20:15:13.689Z,-1.87
2018-03-03T20:17:44.604Z,-2.03
2018-03-03T20:20:15.470Z,-2.07
2018-03-03T20:22:46.380Z,-2.09
2018-03-03T20:25:17.177Z,-2.21
2018-03-03T20:27:48.059Z,-2.24
2018-03-03T20:30:18.942Z,-2.35
2018-03-03T20:32:49.784Z,-2.24
2018-03-03T20:35:20.609Z,-2.16
2018-03-03T20:37:51.487Z,-2.13
2018-03-03T20:40:22.395Z,-2.21
2018-03-03T20:42:53.265Z,-2.35
2018-03-03T20:45:24.142Z,-2.33
2018-03-03T20:47:58.488Z,-2.46
2018-03-03T20:50:29.412Z,-2.52
2018-03-03T20:53:00.376Z,-2.44
2018-03-03T20:55:31.909Z,-2.41
2018-03-03T20:58:02.805Z,-2.25
2018-03-03T21:00:34.542Z,-2.23
2018-03-03T21:03:05.443Z,-2.34
2018-03-03T21:05:36.333Z,-2.42
2018-03-03T21:08:07.215Z,-2.37
2018-03-03T21:10:38.126Z,-2.40
2018-03-03T21:13:09.013Z,-2.50
2018-03-03T21:15:39.806Z,-2.62
2018-03-03T21:18:10.713Z,-2.51
2018-03-03T21:20:41.611Z,-2.47
2018-03-03T21:23:12.509Z,-2.50
2018-03-03T21:25:43.374Z,-2.64
2018-03-03T21:28:14.525Z,-2.86
2018-03-03T21:30:45.442Z,-2.84
2018-03-03T21:33:16.275Z,-2.80
2018-03-03T21:35:47.138Z,-2.76
2018-03-03T21:38:18.042Z,-2.73
2018-03-03T21:40:48.909Z,-2.76
2018-03-03T21:43:19.772Z,-2.73
2018-03-03T21:45:50.653Z,-2.69
2018-03-03T21:48:21.499Z,-2.65
2018-03-03T21:50:52.391Z,-2.56
2018-03-03T21:53:23.379Z,-2.41
2018-03-03T21:55:54.308Z,-2.41
2018-03-03T21:58:26.286Z,-2.44
2018-03-03T22:00:58.999Z,-2.45
2018-03-03T22:03:29.876Z,-2.35
2018-03-03T22:06:00.968Z,-2.30
2018-03-03T22:08:31.771Z,-2.23
2018-03-03T22:11:02.568Z,-2.01
2018-03-03T22:13:33.374Z,-1.93
2018-03-03T22:16:04.196Z,-1.84
2018-03-03T22:18:35.326Z,-1.73
2018-03-03T22:21:06.161Z,-1.68
2018-03-03T22:23:37.026Z,-1.68
2018-03-03T22:26:07.894Z,-1.64
2018-03-03T22:28:38.741Z,-1.62
2018-03-03T22:31:09.706Z,-1.61
2018-03-03T22:33:40.625Z,-1.53
2018-03-03T22:36:11.565Z,-1.51
2018-03-03T22:38:42.428Z,-1.55
2018-03-03T22:41:13.370Z,-1.49
2018-03-03T22:43:45.429Z,-1.49
2018-03-03T22:46:16.284Z,-1.49
2018-03-03T22:48:47.174Z,-1.44
2018-03-03T22:51:18.108Z,-1.45
2018-03-03T22:53:49.323Z,-1.43
2018-03-03T22:56:20.126Z,-1.48
2018-03-03T22:58:51.061Z,-1.48
2018-03-03T23:01:21.901Z,-1.46
2018-03-03T23:03:54.333Z,-1.42
2018-03-03T23:06:25.302Z,-1.42
2018-03-03T23:08:56.224Z,-1.39
2018-03-03T23:11:27.362Z,-1.38
2018-03-03T23:13:58.261Z,-1.36
2018-03-03T23:16:29.167Z,-1.33
2018-03-03T23:19:00.071Z,-1.34
2018-03-03T23:21:31.876Z,-1.36
2018-03-03T23:24:02.823Z,-1.23
2018-03-03T23:26:35.305Z,-1.18
2018-03-03T23:29:06.253Z,-1.11
2018-03-03T23:31:37.363Z,-1.04
2018-03-03T23:34:09.130Z,-1.08
2018-03-03T23:36:40.838Z,-0.96
2018-03-03T23:39:11.768Z,-0.99
2018-03-03T23:41:44.183Z,-0.90
2018-03-03T23:44:16.110Z,-0.90
2018-03-03T23:46:47.016Z,-0.82
2018-03-03T23:49:17.901Z,-0.77
2018-03-03T23:51:52.451Z,-0.78
2018-03-03T23:54:24.442Z,-0.78
2018-03-03T23:56:55.570Z,-0.82
2018-03-03T23:59:27.553Z,-0.79
